createdAt,value
2022-12-20T00:01:11.366Z,101326.44
2022-12-20T00:03:38.456Z,101309.88
2022-12-20T00:06:05.797Z,101304.75
2022-12-20T00:08:34.883Z,101302.72
2022-12-20T00:11:03.370Z,101285.06
2022-12-20T00:13:29.770Z,101293.78
2022-12-20T00:16:11.069Z,101296.72
2022-12-20T00:18:39.069Z,101293.16
2022-12-20T00:21:07.577Z,101301.53
2022-12-20T00:23:35.052Z,101302.53
2022-12-20T00:26:03.608Z,101304.75
2022-12-20T00:28:30.669Z,101305.56
2022-12-20T00:30:58.737Z,101297.00
2022-12-20T00:33:25.241Z,101296.34
2022-12-20T00:35:51.811Z,101292.78
2022-12-20T00:38:18.214Z,101294.88
2022-12-20T00:40:44.637Z,101291.84
2022-12-20T00:43:11.046Z,101287.06
2022-12-20T00:45:37.402Z,101299.06
2022-12-20T00:48:04.077Z,101281.16
2022-12-20T00:50:30.504Z,101289.72
2022-12-20T00:52:56.871Z,101298.88
2022-12-20T00:55:23.269Z,101291.59
2022-12-20T00:57:49.672Z,101294.34
2022-12-20T01:00:16.356Z,101287.03
2022-12-20T01:02:42.796Z,101295.72
2022-12-20T01:05:09.222Z,101284.13
2022-12-20T01:07:35.643Z,101274.63
2022-12-20T01:10:01.979Z,101285.09
2022-12-20T01:12:28.339Z,101275.44
2022-12-20T01:14:54.745Z,101270.19
2022-12-20T01:17:21.096Z,101271.56
2022-12-20T01:19:47.508Z,101282.19
2022-12-20T01:22:13.886Z,101283.75
2022-12-20T01:24:40.275Z,101279.56
2022-12-20T01:27:06.619Z,101290.75
2022-12-20T01:29:32.940Z,101281.81
2022-12-20T01:31:59.429Z,101292.00
2022-12-20T01:34:25.810Z,101276.41
2022-12-20T01:36:52.202Z,101284.84
2022-12-20T01:39:19.240Z,101289.13
2022-12-20T01:41:46.353Z,101290.66
2022-12-20T01:44:18.782Z,101288.84
2022-12-20T01:46:46.993Z,101297.97
2022-12-20T01:49:19.390Z,101291.31
2022-12-20T01:51:53.565Z,101293.81
2022-12-20T01:54:25.355Z,101281.13
2022-12-20T01:56:57.766Z,101291.88
2022-12-20T01:59:25.626Z,101281.78
2022-12-20T02:01:52.138Z,101282.31
2022-12-20T02:04:18.648Z,101282.66
2022-12-20T02:06:45.134Z,101295.38
2022-12-20T02:09:11.499Z,101294.66
2022-12-20T02:12:06.917Z,101287.50
2022-12-20T02:14:51.378Z,101279.59
2022-12-20T02:17:39.710Z,101287.03
2022-12-20T02:20:21.767Z,101276.25
2022-12-20T02:22:54.334Z,101279.25
2022-12-20T02:25:59.310Z,101261.28
2022-12-20T02:29:12.617Z,101259.56
2022-12-20T02:31:57.254Z,101248.69
2022-12-20T02:34:26.269Z,101236.94
2022-12-20T02:36:53.445Z,101238.84
2022-12-20T02:39:21.108Z,101238.97
2022-12-20T02:41:52.725Z,101244.78
2022-12-20T02:44:43.435Z,101244.91
2022-12-20T02:47:15.731Z,101239.78
2022-12-20T02:49:45.641Z,101249.31
2022-12-20T02:52:14.167Z,101245.88
2022-12-20T02:54:40.742Z,101241.72
2022-12-20T02:57:29.454Z,101236.09
2022-12-20T03:00:02.279Z,101237.63
2022-12-20T03:02:29.596Z,101229.75
2022-12-20T03:04:58.424Z,101231.56
2022-12-20T03:07:24.664Z,101229.50
2022-12-20T03:09:50.976Z,101229.06
2022-12-20T03:12:17.585Z,101226.44
2022-12-20T03:14:44.088Z,101227.97
2022-12-20T03:17:11.462Z,101234.88
2022-12-20T03:19:37.839Z,101226.63
2022-12-20T03:22:04.356Z,101227.59
2022-12-20T03:24:32.538Z,101224.81
2022-12-20T03:26:58.931Z,101213.28
2022-12-20T03:29:25.375Z,101217.41
2022-12-20T03:31:51.801Z,101213.69
2022-12-20T03:34:18.160Z,101213.00
2022-12-20T03:36:44.640Z,101219.50
2022-12-20T03:39:11.186Z,101218.41
2022-12-20T03:41:37.665Z,101216.34
2022-12-20T03:44:04.249Z,101214.53
2022-12-20T03:46:30.743Z,101216.91
2022-12-20T03:48:57.219Z,101218.59
2022-12-20T03:51:23.555Z,101193.91
2022-12-20T03:53:49.876Z,101197.47
2022-12-20T03:56:16.273Z,101190.28
2022-12-20T03:58:42.684Z,101198.72
2022-12-20T04:01:29.277Z,101190.31
2022-12-20T04:03:56.659Z,101185.94
2022-12-20T04:06:23.801Z,101191.88
2022-12-20T04:08:50.247Z,101203.88
2022-12-20T04:11:16.623Z,101203.88
2022-12-20T04:13:44.827Z,101195.75
2022-12-20T04:16:12.244Z,101201.69
2022-12-20T04:18:38.724Z,101180.13
2022-12-20T04:21:07.069Z,101176.41
2022-12-20T04:23:38.059Z,101175.78
2022-12-20T04:26:06.855Z,101181.09
2022-12-20T04:28:34.480Z,101168.28
2022-12-20T04:31:01.867Z,101173.16
2022-12-20T04:33:28.905Z,101166.66
2022-12-20T04:35:55.695Z,101171.09
2022-12-20T04:38:23.112Z,101183.78
2022-12-20T04:40:50.886Z,101193.19
2022-12-20T04:43:18.049Z,101178.97
2022-12-20T04:45:45.227Z,101164.88
2022-12-20T04:48:37.497Z,101165.72
2022-12-20T04:50:58.297Z,101155.34
2022-12-20T04:53:43.061Z,101162.13
2022-12-20T04:56:09.533Z,101161.28
2022-12-20T04:58:36.067Z,101162.94
2022-12-20T05:01:02.459Z,101158.53
2022-12-20T05:03:28.914Z,101157.69
2022-12-20T05:05:55.349Z,101170.97
2022-12-20T05:08:21.664Z,101165.03
2022-12-20T05:10:48.801Z,101169.16
2022-12-20T05:13:15.890Z,101162.94
2022-12-20T05:15:42.865Z,101173.72
2022-12-20T05:18:10.243Z,101174.69
2022-12-20T05:20:37.053Z,101173.84
2022-12-20T05:23:22.366Z,101177.47
2022-12-20T05:26:02.582Z,101169.44
2022-12-20T05:28:29.166Z,101162.81
2022-12-20T05:30:55.598Z,101159.78
2022-12-20T05:33:22.149Z,101166.66
2022-12-20T05:35:48.630Z,101149.44
2022-12-20T05:38:15.082Z,101149.00
2022-12-20T05:40:41.525Z,101156.03
2022-12-20T05:43:08.513Z,101149.97
2022-12-20T05:45:35.546Z,101145.97
2022-12-20T05:48:02.420Z,101145.38
2022-12-20T05:50:28.785Z,101140.72
2022-12-20T05:52:55.248Z,101130.59
2022-12-20T05:55:21.582Z,101133.09
2022-12-20T05:57:47.959Z,101120.94
2022-12-20T06:00:15.864Z,101118.63
2022-12-20T06:02:42.473Z,101116.41
2022-12-20T06:05:09.185Z,101117.94
2022-12-20T06:07:36.030Z,101116.16
2022-12-20T06:10:02.443Z,101116.03
2022-12-20T06:12:28.801Z,101119.34
2022-12-20T06:14:55.275Z,101113.09
2022-12-20T06:17:21.868Z,101119.03
2022-12-20T06:19:48.295Z,101126.91
2022-12-20T06:22:14.656Z,101106.34
2022-12-20T06:24:47.617Z,101094.91
2022-12-20T06:27:14.739Z,101105.25
2022-12-20T06:29:41.252Z,101101.53
2022-12-20T06:32:07.690Z,101087.84
2022-12-20T06:34:34.200Z,101091.84
2022-12-20T06:37:00.650Z,101089.22
2022-12-20T06:39:27.039Z,101089.66
2022-12-20T06:41:53.374Z,101082.72
2022-12-20T06:44:19.796Z,101079.69
2022-12-20T06:46:46.185Z,101088.41
2022-12-20T06:49:12.866Z,101080.38
2022-12-20T06:51:39.174Z,101068.22
2022-12-20T06:54:05.671Z,101074.16
2022-12-20T06:56:37.561Z,101078.72
2022-12-20T06:59:07.301Z,101078.59
2022-12-20T07:01:33.733Z,101071.97
2022-12-20T07:04:00.304Z,101067.53
2022-12-20T07:06:28.946Z,101074.59
2022-12-20T07:08:55.553Z,101061.47
2022-12-20T07:11:22.133Z,101086.59
2022-12-20T07:13:50.084Z,101082.16
2022-12-20T07:16:16.473Z,101080.66
2022-12-20T07:18:42.947Z,101063.81
2022-12-20T07:21:09.376Z,101078.84
2022-12-20T07:23:35.844Z,101073.47
2022-12-20T07:26:04.050Z,101083.97
2022-12-20T07:28:30.594Z,101082.31
2022-12-20T07:31:01.527Z,101079.41
2022-12-20T07:33:28.380Z,101079.41
2022-12-20T07:36:01.354Z,101073.88
2022-12-20T07:38:27.934Z,101082.84
2022-12-20T07:40:54.465Z,101077.75
2022-12-20T07:43:20.905Z,101068.78
2022-12-20T07:45:47.542Z,101057.28
2022-12-20T07:48:16.320Z,101065.84
2022-12-20T07:50:48.304Z,101068.47
2022-12-20T07:53:14.804Z,101065.59
2022-12-20T07:55:42.346Z,101063.78
2022-12-20T07:58:11.235Z,101074.97
2022-12-20T08:00:38.505Z,101085.47
2022-12-20T08:03:10.613Z,101096.50
2022-12-20T08:05:40.934Z,101101.88
2022-12-20T08:08:08.549Z,101093.34
2022-12-20T08:10:36.796Z,101095.13
2022-12-20T08:13:05.082Z,101096.94
2022-12-20T08:15:32.302Z,101091.97
2022-12-20T08:17:58.666Z,101091.41
2022-12-20T08:20:25.079Z,101090.44
2022-12-20T08:22:51.585Z,101094.16
2022-12-20T08:25:18.337Z,101081.59
2022-12-20T08:27:45.187Z,101099.28
2022-12-20T08:30:12.074Z,101096.41
2022-12-20T08:32:38.667Z,101105.09
2022-12-20T08:35:06.516Z,101092.81
2022-12-20T08:37:32.967Z,101096.00
2022-12-20T08:40:00.718Z,101092.41
2022-12-20T08:42:27.940Z,101082.59
2022-12-20T08:44:55.573Z,101085.91
2022-12-20T08:47:21.965Z,101092.97
2022-12-20T08:49:48.337Z,101077.22
2022-12-20T08:52:15.252Z,101083.16
2022-12-20T08:54:41.812Z,101076.13
2022-12-20T08:57:10.808Z,101084.41
2022-12-20T08:59:37.227Z,101083.00
2022-12-20T09:02:03.751Z,101083.88
2022-12-20T09:04:30.627Z,101088.13
2022-12-20T09:06:57.118Z,101094.19
2022-12-20T09:09:23.508Z,101099.00
2022-12-20T09:11:49.846Z,101100.81
2022-12-20T09:14:16.195Z,101090.44
2022-12-20T09:16:42.583Z,101088.38
2022-12-20T09:19:12.711Z,101098.72
2022-12-20T09:21:39.133Z,101094.16
2022-12-20T09:24:06.229Z,101096.09
2022-12-20T09:26:35.239Z,101097.72
2022-12-20T09:29:02.337Z,101091.25
2022-12-20T09:31:28.808Z,101093.59
2022-12-20T09:33:57.955Z,101088.25
2022-12-20T09:36:26.331Z,101089.31
2022-12-20T09:38:54.620Z,101086.69
2022-12-20T09:41:42.978Z,101085.47
2022-12-20T09:44:18.936Z,101078.56
2022-12-20T09:46:48.739Z,101087.13
2022-12-20T09:49:18.992Z,101082.69
2022-12-20T09:52:07.533Z,101080.38
2022-12-20T09:54:48.147Z,101084.50
2022-12-20T09:57:48.529Z,101081.91
2022-12-20T10:00:17.790Z,101078.59
2022-12-20T10:02:58.778Z,101087.97
2022-12-20T10:05:53.152Z,101082.44
2022-12-20T10:08:37.883Z,101081.91
2022-12-20T10:11:11.199Z,101078.72
2022-12-20T10:14:05.696Z,101068.66
2022-12-20T10:16:39.351Z,101075.53
2022-12-20T10:19:14.939Z,101068.50
2022-12-20T10:22:19.183Z,101069.91
2022-12-20T10:24:53.957Z,101075.16
2022-12-20T10:27:21.540Z,101070.97
2022-12-20T10:29:50.451Z,101076.34
2022-12-20T10:32:22.264Z,101071.66
2022-12-20T10:35:10.171Z,101059.81
2022-12-20T10:37:36.688Z,101064.78
2022-12-20T10:40:07.423Z,101067.53
2022-12-20T10:42:39.403Z,101067.97
2022-12-20T10:45:31.143Z,101066.16
2022-12-20T10:48:03.713Z,101063.13
2022-12-20T10:50:30.554Z,101055.53
2022-12-20T10:53:19.163Z,101063.97
2022-12-20T10:55:45.812Z,101053.31
2022-12-20T10:58:16.185Z,101058.00
2022-12-20T11:00:43.562Z,101058.16
2022-12-20T11:03:19.154Z,101048.25
2022-12-20T11:06:16.165Z,101046.31
2022-12-20T11:08:50.116Z,101045.19
2022-12-20T11:11:24.521Z,101038.72
2022-12-20T11:13:52.244Z,101037.19
2022-12-20T11:16:40.021Z,101041.59
2022-12-20T11:19:12.171Z,101036.50
2022-12-20T11:21:51.556Z,101031.41
2022-12-20T11:24:31.127Z,101039.94
2022-12-20T11:27:10.515Z,101030.28
2022-12-20T11:30:04.253Z,101027.97
2022-12-20T11:32:48.915Z,101018.44
2022-12-20T11:35:25.206Z,101026.72
2022-12-20T11:38:10.187Z,101022.41
2022-12-20T11:41:02.043Z,101014.41
2022-12-20T11:44:08.096Z,101011.13
2022-12-20T11:46:44.733Z,101005.88
2022-12-20T11:49:45.516Z,101015.00
2022-12-20T11:52:48.781Z,101016.78
2022-12-20T11:55:22.133Z,101006.03
2022-12-20T11:58:21.140Z,101003.66
2022-12-20T12:00:58.256Z,100991.09
2022-12-20T12:03:28.408Z,100999.94
2022-12-20T12:06:03.432Z,100993.03
2022-12-20T12:08:53.358Z,100997.19
2022-12-20T12:12:05.283Z,100998.28
2022-12-20T12:14:31.123Z,100983.09
2022-12-20T12:17:02.892Z,100977.72
2022-12-20T12:19:30.975Z,100990.97
2022-12-20T12:22:12.244Z,100994.69
2022-12-20T12:24:48.900Z,100987.53
2022-12-20T12:27:23.612Z,100984.06
2022-12-20T12:29:50.452Z,100974.00
2022-12-20T12:32:33.280Z,100980.78
2022-12-20T12:35:17.265Z,100977.84
2022-12-20T12:37:44.132Z,100986.97
2022-12-20T12:40:52.456Z,100989.16
2022-12-20T12:43:50.518Z,100976.22
2022-12-20T12:46:27.183Z,100968.34
2022-12-20T12:49:02.359Z,100981.28
2022-12-20T12:51:34.801Z,100984.06
2022-12-20T12:54:25.529Z,100985.16
2022-12-20T12:56:55.595Z,100980.06
2022-12-20T12:59:40.185Z,100989.59
2022-12-20T13:02:16.229Z,100980.06
2022-12-20T13:05:10.740Z,100985.84
2022-12-20T13:07:37.105Z,100994.97
2022-12-20T13:10:09.450Z,100985.03
2022-12-20T13:12:38.823Z,100981.28
2022-12-20T13:15:20.666Z,100972.16
2022-12-20T13:17:54.512Z,100972.34
2022-12-20T13:20:24.128Z,100976.72
2022-12-20T13:23:07.313Z,100975.91
2022-12-20T13:25:48.915Z,100965.41
2022-12-20T13:28:24.163Z,100976.22
2022-12-20T13:30:53.521Z,100971.91
2022-12-20T13:33:24.128Z,100970.28
2022-12-20T13:36:24.409Z,100973.59
2022-12-20T13:39:23.094Z,100978.41
2022-12-20T13:42:11.881Z,100974.81
2022-12-20T13:44:45.019Z,100976.63
2022-12-20T13:47:30.166Z,100973.72
2022-12-20T13:50:00.206Z,100964.19
2022-12-20T13:52:28.882Z,100975.94
2022-12-20T13:54:57.889Z,100977.31
2022-12-20T13:57:39.197Z,100972.91
2022-12-20T14:00:14.387Z,100983.78
2022-12-20T14:02:43.197Z,100971.09
2022-12-20T14:05:17.812Z,100972.19
2022-12-20T14:07:47.958Z,100979.09
2022-12-20T14:10:22.465Z,100978.28
2022-12-20T14:12:54.471Z,100975.78
2022-12-20T14:15:29.620Z,100977.31
2022-12-20T14:17:56.649Z,100982.00
2022-12-20T14:20:28.628Z,100971.50
2022-12-20T14:23:05.430Z,100974.81
2022-12-20T14:25:45.986Z,100972.06
2022-12-20T14:28:27.139Z,100973.84
2022-12-20T14:30:55.284Z,100974.13
2022-12-20T14:33:25.728Z,100963.50
2022-12-20T14:35:52.124Z,100966.25
2022-12-20T14:38:24.713Z,100970.69
2022-12-20T14:40:54.141Z,100968.38
2022-12-20T14:43:32.173Z,100971.25
2022-12-20T14:46:19.137Z,100969.72
2022-12-20T14:48:46.326Z,100967.13
2022-12-20T14:51:20.406Z,100959.94
2022-12-20T14:53:49.174Z,100963.38
2022-12-20T14:56:19.350Z,100963.81
2022-12-20T14:58:45.835Z,100971.81
2022-12-20T15:01:15.063Z,100981.03
2022-12-20T15:04:24.511Z,100964.31
2022-12-20T15:06:52.621Z,100949.16
2022-12-20T15:09:19.571Z,100941.47
2022-12-20T15:11:47.355Z,100950.16
2022-12-20T15:14:24.405Z,100948.75
2022-12-20T15:16:50.909Z,100948.06
2022-12-20T15:19:17.281Z,100950.13
2022-12-20T15:21:45.600Z,100946.94
2022-12-20T15:24:15.363Z,100946.00
2022-12-20T15:26:42.143Z,100940.88
2022-12-20T15:29:21.059Z,100936.47
2022-12-20T15:31:48.693Z,100940.34
2022-12-20T15:34:30.980Z,100944.06
2022-12-20T15:36:59.975Z,100937.97
2022-12-20T15:39:27.166Z,100936.34
2022-12-20T15:41:53.610Z,100931.78
2022-12-20T15:44:23.712Z,100937.03
2022-12-20T15:46:51.035Z,100931.09
2022-12-20T15:49:21.204Z,100933.72
2022-12-20T15:51:49.561Z,100932.34
2022-12-20T15:54:28.504Z,100932.72
2022-12-20T15:56:56.887Z,100940.75
2022-12-20T16:02:21.900Z,100948.75
2022-12-20T16:04:48.426Z,100945.72
2022-12-20T16:07:14.950Z,100946.41
2022-12-20T16:09:41.294Z,100938.69
2022-12-20T16:12:18.351Z,100945.59
2022-12-20T16:14:44.786Z,100947.66
2022-12-20T16:17:16.477Z,100952.63
2022-12-20T16:19:43.326Z,100955.94
2022-12-20T16:22:18.210Z,100952.22
2022-12-20T16:24:45.407Z,100951.09
2022-12-20T16:27:11.974Z,100960.91
2022-12-20T16:29:38.334Z,100954.41
2022-12-20T16:32:14.421Z,100956.34
2022-12-20T16:34:40.843Z,100967.94
2022-12-20T16:37:07.264Z,100959.28
2022-12-20T16:39:33.624Z,100963.81
2022-12-20T16:42:01.542Z,100960.78
2022-12-20T16:44:28.074Z,100965.19
2022-12-20T16:46:54.826Z,100961.06
2022-12-20T16:49:21.734Z,100963.53
2022-12-20T16:51:49.382Z,100972.06
2022-12-20T16:54:22.988Z,100980.91
2022-12-20T16:56:56.709Z,100976.50
2022-12-20T16:59:24.502Z,100982.56
2022-12-20T17:01:56.150Z,100978.31
2022-12-20T17:04:24.034Z,100975.53
2022-12-20T17:06:50.559Z,100974.56
2022-12-20T17:09:18.429Z,100968.38
2022-12-20T17:11:45.399Z,100964.38
2022-12-20T17:14:13.197Z,100957.03
2022-12-20T17:16:40.725Z,100961.75
2022-12-20T17:19:07.513Z,100967.13
2022-12-20T17:24:24.863Z,100952.34
2022-12-20T17:26:51.315Z,100953.47
2022-12-20T17:29:18.200Z,100950.41
2022-12-20T17:31:46.368Z,100951.78
2022-12-20T17:34:15.832Z,100956.34
2022-12-20T17:36:42.140Z,100947.13
2022-12-20T17:39:08.656Z,100961.06
2022-12-20T17:41:35.063Z,100938.31
2022-12-20T17:44:02.750Z,100950.16
2022-12-20T17:46:29.573Z,100943.78
2022-12-20T17:48:57.270Z,100951.97
2022-12-20T17:51:29.478Z,100939.53
2022-12-20T17:54:01.618Z,100947.41
2022-12-20T17:56:36.714Z,100949.03
2022-12-20T17:59:07.059Z,100950.84
2022-12-20T18:01:35.949Z,100951.66
2022-12-20T18:04:06.793Z,100953.72
2022-12-20T18:06:35.263Z,100951.41
2022-12-20T18:09:01.648Z,100951.66
2022-12-20T18:11:28.781Z,100959.94
2022-12-20T18:13:57.302Z,100950.28
2022-12-20T18:16:26.430Z,100938.84
2022-12-20T18:18:53.502Z,100941.31
2022-12-20T18:21:21.013Z,100949.72
2022-12-20T18:23:47.734Z,100945.72
2022-12-20T18:26:20.597Z,100945.34
2022-12-20T18:28:48.647Z,100955.53
2022-12-20T18:31:18.102Z,100961.06
2022-12-20T18:33:44.867Z,100954.16
2022-12-20T18:36:14.251Z,100953.03
2022-12-20T18:38:43.383Z,100959.13
2022-12-20T18:41:16.465Z,100954.97
2022-12-20T18:43:42.896Z,100961.47
2022-12-20T18:46:12.006Z,100961.88
2022-12-20T18:48:39.343Z,100962.72
2022-12-20T18:51:07.676Z,100954.16
2022-12-20T18:53:36.350Z,100960.22
2022-12-20T18:56:04.302Z,100948.09
2022-12-20T18:58:31.849Z,100956.09
2022-12-20T19:01:06.425Z,100953.03
2022-12-20T19:03:33.972Z,100950.59
2022-12-20T19:06:01.162Z,100953.34
2022-12-20T19:08:28.773Z,100954.03
2022-12-20T19:10:59.987Z,100963.53
2022-12-20T19:13:27.124Z,100955.97
2022-12-20T19:16:05.597Z,100960.91
2022-12-20T19:18:32.143Z,100953.47
2022-12-20T19:21:25.828Z,100967.53
2022-12-20T19:23:55.915Z,100963.53
2022-12-20T19:26:24.457Z,100958.28
2022-12-20T19:28:51.358Z,100961.88
2022-12-20T19:31:29.663Z,100961.19
2022-12-20T19:33:57.643Z,100956.50
2022-12-20T19:36:26.164Z,100945.88
2022-12-20T19:38:55.907Z,100963.94
2022-12-20T19:41:24.324Z,100964.22
2022-12-20T19:43:54.170Z,100963.00
2022-12-20T19:46:28.057Z,100964.63
2022-12-20T19:48:55.846Z,100966.16
2022-12-20T19:51:23.162Z,100967.00
2022-12-20T19:53:51.092Z,100965.34
2022-12-20T19:56:20.729Z,100968.22
2022-12-20T19:58:47.734Z,100967.00
2022-12-20T20:01:15.994Z,100973.63
2022-12-20T20:03:42.657Z,100964.38
2022-12-20T20:06:10.051Z,100965.75
2022-12-20T20:08:36.661Z,100973.88
2022-12-20T20:11:09.424Z,100968.50
2022-12-20T20:13:37.344Z,100974.88
2022-12-20T20:16:04.438Z,100974.56
2022-12-20T20:18:36.876Z,100980.63
2022-12-20T20:21:13.393Z,100990.28
2022-12-20T20:23:40.008Z,100982.97
2022-12-20T20:26:09.458Z,100978.31
2022-12-20T20:28:43.665Z,100974.31
2022-12-20T20:31:13.595Z,100965.63
2022-12-20T20:33:40.145Z,100974.56
2022-12-20T20:36:06.781Z,100964.22
2022-12-20T20:38:34.207Z,100971.69
2022-12-20T20:41:00.572Z,100970.44
2022-12-20T20:43:28.213Z,100979.25
2022-12-20T20:45:54.574Z,100978.84
2022-12-20T20:48:21.804Z,100974.16
2022-12-20T20:50:48.185Z,100975.25
2022-12-20T20:53:14.772Z,100976.94
2022-12-20T20:55:41.453Z,100969.31
2022-12-20T20:58:07.920Z,100964.91
2022-12-20T21:00:34.953Z,100958.44
2022-12-20T21:03:01.618Z,100963.81
2022-12-20T21:08:17.271Z,100956.34
2022-12-20T21:10:43.965Z,100962.16
2022-12-20T21:13:11.879Z,100971.94
2022-12-20T21:15:39.089Z,100966.56
2022-12-20T21:18:05.557Z,100969.19
2022-12-20T21:20:31.974Z,100976.38
2022-12-20T21:22:58.375Z,100989.34
2022-12-20T21:25:24.692Z,100978.28
2022-12-20T21:27:51.089Z,100990.16
2022-12-20T21:30:17.624Z,100988.47
2022-12-20T21:32:44.005Z,100990.03
2022-12-20T21:35:10.842Z,100982.16
2022-12-20T21:37:37.313Z,100987.53
2022-12-20T21:40:04.686Z,100985.72
2022-12-20T21:42:31.736Z,100992.50
2022-12-20T21:44:58.134Z,100979.94
2022-12-20T21:47:24.744Z,100980.09
2022-12-20T21:49:51.317Z,100974.69
2022-12-20T21:52:17.673Z,100979.81
2022-12-20T21:54:45.512Z,100987.97
2022-12-20T21:57:11.975Z,100989.59
2022-12-20T21:59:38.463Z,100983.09
2022-12-20T22:02:05.254Z,100978.16
2022-12-20T22:04:32.875Z,100978.44
2022-12-20T22:06:59.197Z,100985.59
2022-12-20T22:09:25.557Z,100985.72
2022-12-20T22:11:52.039Z,100983.41
2022-12-20T22:14:18.410Z,100990.16
2022-12-20T22:16:44.882Z,100990.03
2022-12-20T22:19:14.638Z,100993.03
2022-12-20T22:21:41.329Z,100992.34
2022-12-20T22:24:08.972Z,101000.91
2022-12-20T22:26:37.819Z,100999.69
2022-12-20T22:29:05.870Z,101008.75
2022-12-20T22:31:33.398Z,101003.50
2022-12-20T22:34:00.340Z,101001.75
2022-12-20T22:36:26.967Z,100989.59
2022-12-20T22:38:55.272Z,100994.44
2022-12-20T22:41:29.947Z,100989.34
2022-12-20T22:43:59.077Z,100994.28
2022-12-20T22:46:25.900Z,100997.31
2022-12-20T22:48:52.366Z,101006.81
2022-12-20T22:51:21.595Z,101005.44
2022-12-20T22:53:49.147Z,101016.22
2022-12-20T22:56:17.358Z,100998.84
2022-12-20T22:58:43.831Z,100999.81
2022-12-20T23:01:12.750Z,100995.94
2022-12-20T23:03:40.404Z,100992.22
2022-12-20T23:06:10.202Z,101000.63
2022-12-20T23:08:37.238Z,101002.44
2022-12-20T23:11:25.319Z,100999.53
2022-12-20T23:14:10.592Z,101004.06
2022-12-20T23:16:38.193Z,100994.28
2022-12-20T23:19:04.575Z,100999.94
2022-12-20T23:21:49.613Z,101011.94
2022-12-20T23:24:16.096Z,101012.91
2022-12-20T23:26:43.549Z,101006.44
2022-12-20T23:29:11.425Z,101006.44
2022-12-20T23:31:37.837Z,101008.38
2022-12-20T23:34:04.549Z,101006.44
2022-12-20T23:36:33.217Z,101000.91
2022-12-20T23:38:59.662Z,101013.47
2022-12-20T23:41:25.991Z,101019.53
2022-12-20T23:43:52.487Z,101017.03
2022-12-20T23:46:21.650Z,101004.94
2022-12-20T23:48:52.463Z,101012.91
2022-12-20T23:51:19.442Z,101011.25
2022-12-20T23:53:45.847Z,101015.78
2022-12-20T23:56:15.144Z,101014.97
2022-12-20T23:58:42.408Z,101017.03
